This is the latest recevied weather packets stored in our database for station/object KD0ISH. If no packets are shown the sender has not sent any weather packets the latest 10 day(s).
| Time | Temp. | Humidity | Pressure | Rain* | Wind** | Luminosity | Snow |
|---|---|---|---|---|---|---|---|
| 1778095178 | 15.56° C | 48% | 1019 hPa | 0 mm | - | 648 W/m² | - |
| 1778094875 | 16.11° C | 46% | 1019.3 hPa | 0 mm | - | 385 W/m² | - |
| 1778094571 | 16.11° C | 47% | 1019.3 hPa | 0 mm | - | 757 W/m² | - |
| 1778094268 | 15.56° C | 50% | 1019.4 hPa | 0 mm | - | 430 W/m² | - |
| 1778093965 | 16.11° C | 49% | 1019.5 hPa | 0 mm | - | 217 W/m² | - |
| 1778093663 | 16.67° C | 49% | 1019.2 hPa | 0 mm | - | 615 W/m² | - |
| 1778093359 | 16.67° C | 48% | 1019.4 hPa | 0 mm | - | 762 W/m² | - |
| 1778093056 | 15.56° C | 50% | 1019.4 hPa | 0 mm | - | 773 W/m² | - |
| 1778092754 | 16.11° C | 50% | 1019.6 hPa | 0 mm | - | 237 W/m² | - |
| 1778092449 | 16.11° C | 47% | 1019.5 hPa | 0 mm | - | 194 W/m² | - |
| 1778092146 | 16.11° C | 49% | 1019.4 hPa | 0 mm | - | 690 W/m² | - |
| 1778091843 | 15.56° C | 50% | 1019.5 hPa | 0 mm | - | 646 W/m² | - |
| 1778091540 | 15° C | 53% | 1019.5 hPa | 0 mm | - | 514 W/m² | - |
| 1778091238 | 15.56° C | 49% | 1019.4 hPa | 0 mm | - | 253 W/m² | - |
| 1778090935 | 15° C | 54% | 1019.6 hPa | 0 mm | - | 79 W/m² | - |
| 1778090631 | 15° C | 50% | 1019.7 hPa | 0 mm | - | 150 W/m² | - |
| 1778090328 | 15° C | 52% | 1019.9 hPa | 0 mm | - | 87 W/m² | - |
| 1778090025 | 14.44° C | 53% | 1019.8 hPa | 0 mm | - | 558 W/m² | - |
| 1778089722 | 15° C | 54% | 1019.9 hPa | 0 mm | - | 120 W/m² | - |
| 1778089419 | 15° C | 53% | 1020.1 hPa | 0 mm | - | 238 W/m² | - |
| 1778089117 | 15° C | 53% | 1019.9 hPa | 0 mm | - | 495 W/m² | - |
| 1778088813 | 15° C | 53% | 1020 hPa | 0 mm | - | 121 W/m² | - |
| 1778088510 | 15.56° C | 55% | 1019.8 hPa | 0 mm | - | 93 W/m² | - |
| 1778088207 | 13.89° C | 53% | 1019.9 hPa | 0 mm | - | 271 W/m² | - |
| 1778087904 | 13.89° C | 55% | 1019.9 hPa | 0 mm | - | 138 W/m² | - |
* Rain latest hour (hover to see other rain measurements)
** Current wind speed in m/s (hover to see current wind gust speed)